Aeroporto :
LOGIN :

Iscrizione | Disclaimer

   EN    FR    IT 

 










Sommario :    VFR   VFR Marginale   IFR   IFR Intensivo   IFR Molto Intensivo
Visibilità : 
Base nubi : 
>= 8 km
>= 3000ft
5 / 8 km
1000 / 3000 ft
1500m / 5 km
500 / 1000 ft
800 / 1500m
200 / 500 ft
< 800m
< 200 ft
Simboli :   Temporali  Nebbia  Neve Forte  Precipitazioni Forti  Vento > 20 kt
SIGMETs :   Varie  Temporali  Ghiacco  Turbolenza  Onda orograficha  Ceneri Vulcaniche






- Altitudine del aeroporto : 239 ft
- Codice IATA : VRN


LIPX - Villafranca Int. Verona

ULTIMO METAR :
  • 111920Z VRB02KT 9999 SCT025 BKN060 08/07 Q1010

METARs OBSOLETI :
  • 111850Z 30003KT 250V340 9999 SCT025 BKN050 08/08 Q1010
  • 111820Z 34002KT 9999 SCT025 BKN050 08/08 Q1010
  • 111750Z 33002KT 9999 SCT025 BKN050 08/08 Q1010
  • 111720Z 31004KT 9999 -RA SCT025 BKN050 08/08 Q1011
  • 111650Z VRB01KT 9999 SCT025 BKN050 08/07 Q1011

TAF TAF LIPX
Valido dal 11 a 18 ore il 12 a 03 ore UTC


111700Z 1118/1203 VRB05KT 4000 RA SCT010 OVC050



MetMap, La meteo Aeronautica in un colpo d'occhio ! - Copyright ORBIFLY Dicembre 2007 - Disclaimer

ORBIFLY MET'MAP TEAM :

Programmazione e sviluppo : Alexandra Zaïnal
Concezione e sviluppo : Baudouin d'Aumeries
Co-Programmazione e sviluppo : Marc-Olivier Méhu
Supporto tecnico e logistico : Manuel Goepfert
Aiuto per la traduzione : Arnaldo La Scala

Contatto : metmap@orbifly.com




FONTI E CREDITI :

   NOAA